Time;durP1;ratioP1;P1;durP2;ratioP2;P2;SDS_P1;SDS_P2;PMS_P1;PMS_P2;Temp;Humidity;BMP_temperature;BMP_pressure;BME280_temperature;BME280_humidity;BME280_pressure;Samples;Min_cycle;Max_cycle;Signal;HPM_P1;HPM_P2
2022/11/19 00:00:09;;;;;;;34.58;22.60;;;7.70;99.90;;;7.82;100.00;100656.22;5114280;28;20118;-67
2022/11/19 00:02:38;;;;;;;34.25;23.15;;;7.70;99.90;;;7.52;100.00;100649.06;5114287;28;20044;-66
2022/11/19 00:05:07;;;;;;;38.53;23.42;;;7.60;99.90;;;7.30;100.00;100640.19;5114178;28;20417;-66
2022/11/19 00:07:35;;;;;;;36.10;23.17;;;7.40;99.90;;;7.37;100.00;100656.00;5114079;28;20046;-66
2022/11/19 00:10:04;;;;;;;36.42;22.88;;;7.30;99.90;;;7.36;100.00;100652.50;5113978;28;20110;-66
2022/11/19 00:15:20;;;;;;;42.38;25.23;;;7.40;99.90;;;7.66;100.00;100663.16;5114387;28;20062;-66
2022/11/19 00:17:49;;;;;;;41.50;24.17;;;7.60;99.90;;;7.73;100.00;100670.19;5114166;28;20046;-66
2022/11/19 00:20:17;;;;;;;38.20;24.48;;;7.70;99.90;;;7.64;100.00;100670.19;5114228;28;20101;-66
2022/11/19 00:22:45;;;;;;;37.15;24.52;;;7.70;99.90;;;7.39;100.00;100668.31;5113896;28;20054;-66
2022/11/19 00:25:13;;;;;;;38.58;24.27;;;7.40;99.90;;;7.25;100.00;100675.22;5113658;28;20075;-67
2022/11/19 00:27:42;;;;;;;39.28;24.67;;;7.30;99.90;;;7.72;100.00;100671.09;5113691;28;20054;-66
2022/11/19 00:30:12;;;;;;;43.30;24.23;;;7.60;99.90;;;7.98;100.00;100676.41;5113798;28;20044;-66
2022/11/19 00:33:01;;;;;;;34.70;23.73;;;7.80;99.90;;;7.56;100.00;100677.16;5114029;28;20039;-66
2022/11/19 00:35:29;;;;;;;40.08;23.75;;;7.60;99.90;;;7.61;100.00;100658.72;5113973;28;20689;-66
2022/11/19 00:37:58;;;;;;;46.15;24.48;;;7.60;99.90;;;7.29;100.00;100662.13;5113630;28;20114;-66
2022/11/19 00:40:26;;;;;;;38.10;24.38;;;7.40;99.90;;;7.28;100.00;100664.72;5113654;28;20039;-67
2022/11/19 00:45:36;;;;;;;39.20;25.23;;;7.20;99.90;;;7.52;100.00;100670.13;5113162;28;20142;-66
2022/11/19 00:48:06;;;;;;;42.17;24.60;;;7.40;99.90;;;7.09;100.00;100674.25;5113519;28;20042;-66
2022/11/19 00:50:34;;;;;;;42.30;25.27;;;7.20;99.90;;;7.17;100.00;100674.31;5113534;28;20043;-66
2022/11/19 00:53:03;;;;;;;41.78;26.00;;;7.10;99.90;;;7.35;100.00;100677.06;5113753;28;20051;-66
2022/11/19 00:55:31;;;;;;;42.58;26.23;;;7.30;99.90;;;7.06;100.00;100676.88;5113796;28;20051;-66
2022/11/19 00:58:02;;;;;;;43.05;26.60;;;7.10;99.90;;;7.29;100.00;100684.91;5113522;28;20050;-66
2022/11/19 01:00:31;;;;;;;39.60;26.08;;;7.20;99.90;;;7.21;100.00;100687.50;5113860;28;20117;-66
2022/11/19 01:03:00;;;;;;;45.58;26.25;;;7.10;99.90;;;7.17;100.00;100690.09;5113686;28;20043;-66
2022/11/19 01:05:29;;;;;;;48.03;27.73;;;7.20;99.90;;;7.02;100.00;100698.75;5113696;28;20036;-66
2022/11/19 01:07:58;;;;;;;44.88;27.65;;;7.00;99.90;;;7.04;100.00;100702.28;5113795;28;20070;-66
2022/11/19 01:10:26;;;;;;;43.38;27.13;;;7.10;99.90;;;7.01;100.00;100673.31;5113349;28;20093;-66
2022/11/19 01:15:41;;;;;;;44.55;27.80;;;7.30;99.90;;;6.89;100.00;100702.16;5113919;28;20047;-66
2022/11/19 01:18:09;;;;;;;40.90;26.63;;;7.00;99.90;;;7.21;100.00;100712.91;5113487;28;20062;-66
2022/11/19 01:20:38;;;;;;;41.10;27.48;;;7.10;99.90;;;7.14;100.00;100711.13;5115680;28;20051;-66
2022/11/19 01:23:07;;;;;;;39.83;25.97;;;7.10;99.90;;;7.19;100.00;100714.66;5117262;28;20078;-82
2022/11/19 01:25:35;;;;;;;43.00;26.92;;;7.10;99.90;;;7.12;100.00;100726.00;5118042;28;20281;-82
2022/11/19 01:28:04;;;;;;;38.72;24.98;;;7.10;99.90;;;6.84;100.00;100676.69;5117188;28;20048;-81
2022/11/19 01:30:33;;;;;;;39.72;24.13;;;7.00;99.90;;;6.78;100.00;100697.69;5117155;28;20062;-82
2022/11/19 01:33:04;;;;;;;34.08;22.80;;;6.90;99.90;;;7.10;100.00;100714.59;5099112;28;20039;-82
2022/11/19 01:35:34;;;;;;;30.02;21.13;;;7.00;99.90;;;7.08;100.00;100722.44;5117046;28;20050;-82
2022/11/19 01:38:05;;;;;;;27.50;19.48;;;7.10;99.90;;;6.72;100.00;100711.66;5117279;28;20546;-82
2022/11/19 01:40:34;;;;;;;;;;;6.80;99.90;;;6.73;100.00;100695.03;5117704;28;20051;-83
2022/11/19 01:43:02;;;;;;;27.52;19.80;;;6.80;99.90;;;6.46;100.00;100717.56;5116203;28;19946;-82
2022/11/19 01:45:35;;;;;;;29.30;21.02;;;6.60;99.90;;;6.63;100.00;100729.09;5098925;28;20050;-82
2022/11/19 01:48:12;;;;;;;31.52;21.52;;;6.60;99.90;;;6.56;100.00;100706.28;5098787;28;20051;-82
2022/11/19 01:50:46;;;;;;;33.78;22.55;;;6.60;99.90;;;6.68;100.00;100730.03;5098793;28;20447;-82
2022/11/19 01:53:18;;;;;;;32.83;23.67;;;6.60;99.90;;;6.37;100.00;100734.09;5098776;28;20374;-83
2022/11/19 01:55:47;;;;;;;34.15;21.90;;;6.40;99.90;;;6.41;100.00;100717.50;5116779;28;20105;-82
2022/11/19 01:58:19;;;;;;;40.20;24.77;;;6.40;99.90;;;6.38;100.00;100728.88;5116886;28;20123;-84
2022/11/19 02:00:47;;;;;;;37.70;23.83;;;6.40;99.90;;;6.22;100.00;100716.44;5116647;28;20047;-83
2022/11/19 02:03:18;;;;;;;39.20;24.40;;;6.30;99.90;;;6.23;100.00;100727.84;5116797;28;20051;-84
2022/11/19 02:05:47;;;;;;;37.90;23.95;;;6.30;99.90;;;6.30;100.00;100709.53;5116519;28;20063;-85
2022/11/19 02:08:38;;;;;;;34.00;23.13;;;6.40;99.90;;;6.46;100.00;100739.47;5116459;28;20043;-84
2022/11/19 02:11:41;;;;;;;34.10;22.93;;;6.40;99.90;;;6.05;100.00;100731.13;5116642;28;20070;-85
2022/11/19 02:14:25;;;;;;;35.35;24.08;;;6.10;99.90;;;6.30;100.00;100733.16;5116901;28;20047;-85
2022/11/19 02:17:03;;;;;;;37.40;24.80;;;6.30;99.90;;;6.00;100.00;100698.69;5116352;28;20040;-83
2022/11/19 02:20:12;;;;;;;38.67;24.42;;;6.30;99.90;;;6.22;100.00;100758.47;5116287;28;20467;-84
2022/11/19 02:23:23;;;;;;;34.13;23.73;;;6.30;99.90;;;6.50;100.00;100759.63;5102105;28;20078;-85
2022/11/19 02:26:31;;;;;;;40.50;26.08;;;6.40;99.90;;;6.43;100.00;100763.03;5098057;28;20448;-84
2022/11/19 02:29:13;;;;;;;39.92;26.95;;;6.60;99.90;;;6.20;100.00;100768.06;5116387;28;20047;-85
2022/11/19 02:31:53;;;;;;;40.17;28.10;;;6.20;99.90;;;6.50;100.00;100783.28;5115252;28;20047;-85
2022/11/19 02:34:29;;;;;;;45.67;29.57;;;6.40;99.90;;;6.22;100.00;100758.47;5116271;28;20548;-85
2022/11/19 02:37:04;;;;;;;48.03;28.92;;;6.40;99.90;;;5.97;100.00;100772.16;5116519;28;20314;-84
2022/11/19 02:39:40;;;;;;;51.27;32.17;;;6.10;99.90;;;6.06;100.00;100764.38;5115781;28;20434;-85
2022/11/19 02:42:17;;;;;;;51.38;31.33;;;6.10;99.90;;;5.64;100.00;100734.94;5116093;28;20126;-85
2022/11/19 02:44:59;;;;;;;55.27;31.70;;;6.00;99.90;;;5.59;100.00;100756.75;5097832;28;20062;-85
2022/11/19 02:47:33;;;;;;;54.87;33.50;;;5.80;99.90;;;4.94;100.00;100645.69;5116021;28;20044;-85
2022/11/19 02:50:08;;;;;;;55.37;33.60;;;5.80;99.90;;;5.43;100.00;100724.19;5115709;28;20047;-83
2022/11/19 02:52:37;;;;;;;50.17;31.63;;;5.70;99.90;;;5.92;100.00;100773.81;5097580;28;20074;-86
2022/11/19 02:55:07;;;;;;;50.27;32.67;;;5.90;99.90;;;5.69;100.00;100785.72;5115317;28;20059;-84
2022/11/19 02:57:37;;;;;;;49.72;33.17;;;5.80;99.90;;;5.85;100.00;100779.88;5097467;28;20047;-85
2022/11/19 03:06:01;;;;;;;55.67;34.33;;;5.60;99.90;;;5.37;100.00;100776.53;5114828;28;20047;-84
2022/11/19 03:08:29;;;;;;;60.03;35.73;;;5.50;99.90;;;5.53;100.00;100777.63;5115346;28;20043;-85
2022/11/19 03:11:13;;;;;;;61.37;35.60;;;5.50;99.90;;;5.52;100.00;100783.75;5097217;28;20047;-85
2022/11/19 03:16:46;;;;;;;60.97;34.67;;;5.80;99.90;;;5.84;100.00;100770.25;5115060;28;20050;-85
2022/11/19 03:19:32;;;;;;;56.00;33.08;;;5.90;99.90;;;5.90;100.00;100788.69;5115048;28;20040;-83
2022/11/19 03:22:10;;;;;;;59.03;35.17;;;5.90;99.90;;;5.82;100.00;100787.69;5115556;28;20059;-85
2022/11/19 03:24:44;;;;;;;57.37;34.07;;;5.80;99.90;;;5.61;100.00;100763.78;5096906;28;20044;-85
2022/11/19 03:27:19;;;;;;;58.70;34.67;;;5.70;99.90;;;5.64;100.00;100768.16;5114979;28;20059;-84
2022/11/19 03:29:50;;;;;;;63.75;36.15;;;5.70;99.90;;;5.67;100.00;100787.44;5114891;28;20449;-85
2022/11/19 03:32:25;;;;;;;65.93;35.27;;;5.70;99.90;;;5.74;100.00;100765.69;5114876;28;20051;-86
2022/11/19 03:34:59;;;;;;;63.08;35.78;;;5.90;99.90;;;5.52;100.00;100766.25;5114615;28;20123;-85
2022/11/19 03:37:38;;;;;;;59.80;33.90;;;5.80;99.90;;;5.52;100.00;100808.22;5115009;28;20044;-85
2022/11/19 03:40:11;;;;;;;63.10;36.07;;;5.60;99.90;;;5.57;100.00;100789.94;5114913;28;20088;-85
2022/11/19 03:42:40;;;;;;;64.70;36.97;;;5.60;99.90;;;5.64;100.00;100800.53;5114308;28;20048;-86
2022/11/19 03:45:14;;;;;;;61.87;35.60;;;5.60;99.90;;;5.64;100.00;100808.41;5113912;28;20445;-85
2022/11/19 03:47:45;;;;;;;57.80;33.07;;;5.60;99.90;;;5.40;100.00;100808.94;5114872;28;20050;-84
2022/11/19 03:50:28;;;;;;;61.83;38.20;;;5.50;99.90;;;5.55;100.00;100797.81;5114815;28;20488;-85
2022/11/19 03:52:58;;;;;;;61.28;35.63;;;5.50;99.90;;;5.62;100.00;100807.50;5115024;28;20050;-87
2022/11/19 03:55:37;;;;;;;57.47;35.80;;;5.60;99.90;;;5.45;100.00;100814.25;5096288;28;20051;-88
2022/11/19 03:58:07;;;;;;;70.23;38.47;;;5.50;99.90;;;5.45;100.00;100801.13;5114955;28;20066;-86
2022/11/19 04:00:35;;;;;;;57.95;36.97;;;5.50;99.90;;;5.23;100.00;100815.66;5114231;28;20067;-86
2022/11/19 04:03:05;;;;;;;54.37;35.33;;;5.30;99.90;;;5.13;100.00;100791.91;5114569;28;20040;-85
2022/11/19 04:05:36;;;;;;;54.47;35.53;;;5.30;99.90;;;5.32;100.00;100818.41;5114792;28;20047;-86
2022/11/19 04:08:05;;;;;;;57.80;36.40;;;5.30;99.90;;;4.55;100.00;100735.88;5114194;28;20368;-84
2022/11/19 04:10:33;;;;;;;58.33;36.57;;;5.20;99.90;;;5.04;100.00;100823.19;5114071;28;20552;-85
2022/11/19 04:13:02;;;;;;;56.77;37.27;;;5.10;99.90;;;5.01;100.00;100810.03;5114231;28;20051;-84
2022/11/19 04:15:30;;;;;;;58.83;35.93;;;5.10;99.90;;;4.70;100.00;100806.00;5115706;28;20443;-84
2022/11/19 04:17:58;;;;;;;57.60;35.87;;;4.90;99.90;;;5.11;100.00;100822.44;5097137;28;20126;-85
2022/11/19 04:20:27;;;;;;;57.57;37.00;;;5.10;99.90;;;4.88;100.00;100805.47;5114074;28;20044;-84
2022/11/19 04:22:56;;;;;;;56.97;36.27;;;5.10;99.90;;;5.00;100.00;100834.47;5114039;28;20215;-84
2022/11/19 04:25:25;;;;;;;59.15;38.33;;;5.00;99.90;;;5.17;100.00;100835.63;5114152;28;20082;-84
2022/11/19 04:27:53;;;;;;;63.23;39.07;;;5.10;99.90;;;5.18;100.00;100840.03;5113838;28;20385;-84
2022/11/19 04:30:22;;;;;;;64.37;38.93;;;5.20;99.90;;;5.08;100.00;100836.38;5113838;28;20409;-83
2022/11/19 04:32:50;;;;;;;65.67;38.97;;;5.10;99.90;;;5.07;100.00;100841.59;5114308;28;20039;-84
2022/11/19 04:35:20;;;;;;;63.88;39.95;;;5.10;99.90;;;5.37;100.00;100845.59;5113674;28;20493;-85
2022/11/19 04:37:49;;;;;;;59.50;38.20;;;5.40;99.90;;;5.19;100.00;100844.41;5113651;28;20477;-84
2022/11/19 04:40:18;;;;;;;58.30;38.13;;;5.30;99.90;;;5.11;100.00;100852.16;5113531;28;20425;-83
2022/11/19 04:42:47;;;;;;;59.30;37.90;;;5.20;99.90;;;5.32;100.00;100846.41;5113648;28;20118;-84
2022/11/19 04:45:16;;;;;;;58.90;40.17;;;5.40;99.90;;;4.80;100.00;100763.38;5113806;28;20297;-84
2022/11/19 04:47:45;;;;;;;56.03;39.05;;;5.40;99.90;;;5.65;100.00;100854.78;5095644;28;20139;-84
2022/11/19 04:50:15;;;;;;;52.60;36.27;;;5.60;99.90;;;5.67;100.00;100868.78;5113566;28;20044;-84
2022/11/19 04:52:43;;;;;;;;;;;5.60;99.90;;;5.53;100.00;100875.59;5114005;28;20054;-83
2022/11/19 04:55:13;;;;;;;55.27;36.77;;;5.50;99.90;;;5.62;100.00;100887.94;5113286;28;19927;-83
2022/11/19 04:57:42;;;;;;;56.50;36.77;;;5.60;99.90;;;5.33;100.00;100879.59;5095676;28;20044;-84
2022/11/19 05:00:13;;;;;;;52.80;37.80;;;5.40;99.90;;;5.23;100.00;100883.81;5095363;28;20504;-83
2022/11/19 05:02:41;;;;;;;57.17;36.70;;;5.40;99.90;;;5.37;100.00;100878.81;5113780;28;20043;-83
2022/11/19 05:05:10;;;;;;;65.60;39.70;;;5.40;99.90;;;5.15;100.00;100880.19;5113397;28;20043;-82
2022/11/19 05:07:38;;;;;;;64.63;41.00;;;5.30;99.90;;;5.60;100.00;100885.31;5114107;28;20078;-84
2022/11/19 05:10:08;;;;;;;58.37;38.83;;;5.50;99.90;;;5.57;100.00;100880.03;5113316;28;20045;-84
2022/11/19 05:12:36;;;;;;;58.10;39.37;;;5.60;99.90;;;5.70;100.00;100884.59;5113624;28;20063;-83
2022/11/19 05:15:07;;;;;;;60.30;39.03;;;5.60;99.90;;;5.78;100.00;100884.69;5113249;28;20050;-83
2022/11/19 05:17:35;;;;;;;59.47;38.43;;;5.70;99.90;;;5.43;99.52;100881.53;5113593;28;20382;-83
2022/11/19 05:20:05;;;;;;;60.47;38.43;;;5.60;99.90;;;4.78;100.00;100887.34;5113265;28;20044;-82
2022/11/19 05:22:33;;;;;;;58.37;38.83;;;5.00;99.90;;;5.09;100.00;100881.81;5113157;28;20031;-84
2022/11/19 05:25:01;;;;;;;65.67;40.97;;;5.10;99.90;;;5.04;100.00;100901.81;5113188;28;20039;-83
2022/11/19 05:27:30;;;;;;;59.37;39.13;;;5.10;99.90;;;5.16;100.00;100876.72;5095175;28;20043;-83
2022/11/19 05:29:58;;;;;;;64.67;41.20;;;5.20;99.90;;;5.47;100.00;100906.97;5113192;28;20101;-82
2022/11/19 05:32:27;;;;;;;62.67;39.67;;;5.40;99.90;;;5.03;99.81;100902.69;5113088;28;20078;-81
2022/11/19 05:34:56;;;;;;;67.27;42.13;;;5.20;99.90;;;5.28;100.00;100913.59;5095154;28;20043;-83
2022/11/19 05:37:24;;;;;;;68.60;42.80;;;5.20;99.90;;;4.81;100.00;100895.25;5113303;28;20074;-83
2022/11/19 05:39:52;;;;;;;72.70;43.83;;;5.00;99.90;;;4.48;100.00;100906.84;5095105;28;20036;-82
2022/11/19 05:42:21;;;;;;;74.57;46.37;;;4.70;99.90;;;4.76;100.00;100913.53;5112959;28;20126;-82
2022/11/19 05:44:49;;;;;;;74.60;43.30;;;4.80;99.90;;;4.45;100.00;100904.16;5113387;28;20126;-83
2022/11/19 05:47:18;;;;;;;69.33;44.83;;;4.60;99.90;;;4.84;100.00;100916.31;5113041;28;20114;-82
2022/11/19 05:49:47;;;;;;;74.93;45.60;;;4.70;99.90;;;4.76;100.00;100926.63;5113255;28;20504;-82
2022/11/19 05:52:16;;;;;;;78.43;46.10;;;4.80;99.90;;;4.31;100.00;100936.16;5095012;28;20142;-82
2022/11/19 05:54:44;;;;;;;75.13;47.13;;;4.50;99.90;;;4.42;100.00;100938.16;5095187;28;20379;-82
2022/11/19 05:57:12;;;;;;;75.33;47.17;;;4.40;99.90;;;4.00;100.00;100829.94;5113567;28;20474;-82
2022/11/19 05:59:41;;;;;;;71.70;46.23;;;4.50;99.90;;;4.78;100.00;100930.13;5112909;28;20500;-83
2022/11/19 06:02:11;;;;;;;78.38;49.50;;;4.70;99.90;;;4.88;100.00;100905.03;5113211;28;20122;-83
2022/11/19 06:04:39;;;;;;;76.70;46.80;;;4.90;99.90;;;4.75;100.00;100929.19;5094879;28;20495;-82
2022/11/19 06:07:09;;;;;;;72.03;46.93;;;4.90;99.90;;;4.79;99.93;100923.16;5114034;28;20488;-83
2022/11/19 06:09:37;;;;;;;76.97;47.72;;;4.90;99.90;;;4.89;99.53;100940.84;5116703;28;20408;-83
2022/11/19 06:12:07;;;;;;;74.67;48.60;;;4.90;99.90;;;4.32;99.41;100936.19;5116434;28;20079;-81
2022/11/19 06:14:35;;;;;;;73.73;46.83;;;4.50;99.90;;;4.53;100.00;100927.88;5116361;28;20039;-83
2022/11/19 06:17:04;;;;;;;73.40;46.27;;;4.60;99.90;;;4.48;98.94;100954.00;5116542;28;20405;-83
2022/11/19 06:19:32;;;;;;;72.23;47.20;;;4.60;99.90;;;4.37;99.65;100945.03;5116225;28;20035;-82
2022/11/19 06:22:01;;;;;;;76.20;47.70;;;4.50;99.90;;;4.46;99.66;100963.56;5116151;28;20044;-82
2022/11/19 06:24:30;;;;;;;70.87;45.90;;;4.50;99.90;;;4.57;99.11;100950.66;5116697;28;20044;-82
2022/11/19 06:26:59;;;;;;;67.45;45.88;;;4.60;99.90;;;4.66;98.55;100958.72;5116941;28;20446;-82
2022/11/19 06:29:27;;;;;;;69.23;45.43;;;4.70;99.90;;;4.63;97.72;100965.66;5116052;28;20046;-81
2022/11/19 06:31:56;;;;;;;68.33;45.30;;;4.70;99.90;;;4.46;96.73;100963.56;5116306;28;20109;-81
2022/11/19 06:34:24;;;;;;;67.07;45.00;;;4.60;99.90;;;4.41;98.03;100973.03;5116093;28;20436;-81
2022/11/19 06:36:52;;;;;;;64.17;44.07;;;4.40;99.90;;;4.61;97.52;100983.94;5097973;28;20485;-81
2022/11/19 06:39:21;;;;;;;65.20;44.07;;;4.60;99.90;;;4.18;98.14;100992.56;5115864;28;20044;-82
2022/11/19 06:41:51;;;;;;;65.10;43.23;;;4.30;99.90;;;3.99;99.12;100976.44;5115707;28;20434;-82
2022/11/19 06:44:19;;;;;;;65.23;42.13;;;4.10;99.90;;;3.92;98.57;100980.63;5116266;28;20050;-81
2022/11/19 06:46:47;;;;;;;64.37;41.87;;;4.10;99.90;;;3.87;99.11;100974.38;5115664;28;20277;-81
2022/11/19 06:49:15;;;;;;;65.40;43.37;;;4.00;99.90;;;3.83;98.46;100988.25;5097642;28;20044;-82
2022/11/19 06:51:47;;;;;;;65.77;43.53;;;3.90;99.90;;;3.83;98.33;100966.44;5116202;28;20048;-82
2022/11/19 06:54:15;;;;;;;68.20;44.40;;;3.90;99.90;;;3.72;97.25;100953.09;5115808;28;20338;-82
2022/11/19 06:56:44;;;;;;;68.47;44.87;;;4.00;99.90;;;3.89;97.64;101003.22;5116109;28;20058;-81
2022/11/19 06:59:14;;;;;;;63.80;42.90;;;3.90;99.90;;;3.32;98.45;100908.50;5115721;28;20039;-80
2022/11/19 07:01:42;;;;;;;67.65;44.90;;;3.80;99.90;;;3.61;97.92;100996.41;5115931;28;20039;-81
2022/11/19 07:04:10;;;;;;;65.60;40.30;;;3.80;99.90;;;3.21;98.39;100998.81;5115370;28;20052;-82
2022/11/19 07:06:39;;;;;;;64.43;41.43;;;3.40;99.90;;;3.23;99.38;101010.22;5115343;28;20070;-81
2022/11/19 07:09:07;;;;;;;67.40;44.17;;;3.40;99.90;;;3.36;99.88;101014.91;5115780;28;20050;-80
2022/11/19 07:11:36;;;;;;;65.93;42.47;;;3.40;99.90;;;3.22;100.00;100995.34;5115264;28;20122;-80
2022/11/19 07:14:04;;;;;;;67.00;41.30;;;3.40;99.90;;;3.15;99.50;101009.13;5115761;28;20235;-82
2022/11/19 07:16:36;;;;;;;66.67;43.03;;;3.40;99.90;;;3.35;100.00;101020.97;5097111;28;20072;-80
2022/11/19 07:19:07;;;;;;;72.00;44.93;;;3.40;99.90;;;3.44;99.83;101021.25;5115056;28;20086;-80
2022/11/19 07:21:40;;;;;;;67.37;43.20;;;3.50;99.90;;;3.41;99.64;101040.31;5115008;28;20046;-81
2022/11/19 07:24:10;;;;;;;66.70;42.40;;;3.40;99.90;;;3.09;99.80;100996.78;5115001;28;20401;-81
2022/11/19 07:26:38;;;;;;;66.33;41.67;;;3.40;99.90;;;3.37;100.00;101032.34;5096940;28;20051;-80
2022/11/19 07:29:09;;;;;;;65.03;42.20;;;3.40;99.90;;;3.54;99.25;101033.72;5096977;28;20043;-81
2022/11/19 07:31:39;;;;;;;67.28;41.83;;;3.60;99.90;;;3.31;98.54;101040.06;5114951;28;20078;-79
2022/11/19 07:34:07;;;;;;;68.65;41.80;;;3.40;99.90;;;3.09;98.68;101042.91;5114921;28;20035;-80
2022/11/19 07:36:36;;;;;;;65.80;42.87;;;3.30;99.90;;;3.03;98.91;100980.03;5115206;28;20059;-80
2022/11/19 07:39:05;;;;;;;65.00;41.20;;;3.40;99.90;;;3.07;98.96;101040.25;5096718;28;20101;-81
2022/11/19 07:44:20;;;;;;;68.73;42.80;;;3.10;99.90;;;3.15;99.28;101037.84;5114916;28;20040;-80
2022/11/19 07:46:49;;;;;;;68.93;43.27;;;3.20;99.90;;;3.18;98.19;101022.25;5114992;28;20512;-81
2022/11/19 07:49:18;;;;;;;67.00;42.90;;;3.40;99.90;;;3.47;97.99;101064.03;5116174;28;20042;-80
2022/11/19 07:51:47;;;;;;;62.43;40.60;;;3.50;99.90;;;3.25;97.55;101016.38;5116897;28;20436;-81
2022/11/19 07:54:15;;;;;;;66.00;42.77;;;3.50;99.90;;;3.18;97.41;101045.75;5117238;28;20039;-80
2022/11/19 07:56:44;;;;;;;65.23;40.90;;;3.40;99.90;;;3.47;97.51;101066.63;5116254;28;20052;-80
2022/11/19 07:59:12;;;;;;;65.33;41.10;;;3.50;99.90;;;3.33;96.90;101035.75;5115338;28;20036;-80
2022/11/19 08:01:41;;;;;;;66.67;40.93;;;3.60;99.90;;;3.24;96.98;101015.47;5115708;28;20044;-80
2022/11/19 08:04:11;;;;;;;68.23;41.53;;;3.50;99.90;;;3.18;96.71;101051.00;5116452;28;20044;-80
2022/11/19 08:06:39;;;;;;;66.93;42.75;;;3.40;99.90;;;3.25;96.77;101073.84;5116731;28;20040;-80
2022/11/19 08:09:07;;;;;;;69.93;43.13;;;3.40;99.90;;;3.44;97.46;101063.97;5115709;28;20035;-80
2022/11/19 08:11:36;;;;;;;66.67;43.17;;;3.50;99.90;;;3.64;96.21;101080.16;5116870;28;20036;-81
2022/11/19 08:14:04;;;;;;;65.80;42.57;;;3.70;99.90;;;3.75;95.89;101083.06;5115952;28;20040;-80
2022/11/19 08:19:20;;;;;;;67.40;42.23;;;3.70;99.90;;;3.44;95.78;101091.81;5115701;28;20043;-80
2022/11/19 08:21:50;;;;;;;;;;;3.50;99.90;;;2.97;95.92;101046.06;5116346;28;20043;-80
2022/11/19 08:24:20;;;;;;;68.17;41.63;;;3.30;99.90;;;2.94;96.47;101063.38;5114863;28;19920;-80
2022/11/19 08:26:50;;;;;;;65.30;42.10;;;3.20;99.90;;;3.26;96.39;101102.66;5096533;28;20044;-80
2022/11/19 08:29:22;;;;;;;69.93;43.63;;;3.30;99.90;;;3.40;95.78;101113.50;5114102;28;20044;-79
2022/11/19 08:31:51;;;;;;;69.73;42.70;;;3.40;99.90;;;3.31;95.86;101098.41;5096161;28;20047;-79
2022/11/19 08:34:21;;;;;;;66.27;41.37;;;3.40;99.90;;;3.48;95.56;101104.13;5114422;28;20046;-79
2022/11/19 08:36:50;;;;;;;;;;;3.50;99.90;;;3.67;95.02;101116.88;5114291;28;20063;-80
2022/11/19 08:39:18;;;;;;;63.53;39.97;;;3.60;99.90;;;3.73;94.14;101127.50;5114156;28;20369;-79
2022/11/19 08:44:33;;;;;;;61.57;39.27;;;3.40;99.90;;;3.08;95.03;101137.81;5113985;28;20044;-80
2022/11/19 08:47:01;;;;;;;64.83;42.03;;;3.30;99.90;;;2.87;95.99;101129.31;5113914;28;20050;-79
2022/11/19 08:49:31;;;;;;;65.30;40.70;;;3.00;99.90;;;2.98;96.23;101109.66;5114418;28;20458;-80
2022/11/19 08:51:59;;;;;;;64.88;41.47;;;3.10;99.90;;;3.01;96.53;101130.63;5096867;28;20073;-79
2022/11/19 08:54:27;;;;;;;61.57;40.53;;;3.10;99.90;;;3.16;96.54;101095.38;5095857;28;20473;-79
2022/11/19 08:56:56;;;;;;;64.57;42.87;;;3.30;99.90;;;2.96;95.52;101122.63;5095320;28;20572;-79
2022/11/19 08:59:24;;;;;;;66.53;42.93;;;3.10;99.90;;;3.01;96.06;101134.13;5113407;28;20401;-79
2022/11/19 09:01:52;;;;;;;65.80;42.37;;;3.10;99.90;;;3.14;95.49;101135.34;5113633;28;20062;-79
2022/11/19 09:04:21;;;;;;;63.97;41.83;;;3.20;99.90;;;3.25;95.40;101139.19;5113244;28;20388;-79
2022/11/19 09:06:51;;;;;;;60.83;39.20;;;3.30;99.90;;;3.21;95.16;101140.84;5113620;28;20093;-80
2022/11/19 09:09:20;;;;;;;65.03;40.75;;;3.30;99.90;;;2.86;95.92;101098.81;5113910;28;20397;-79
2022/11/19 09:11:48;;;;;;;64.50;40.90;;;3.20;99.90;;;2.77;95.99;101146.41;5113285;28;20044;-80
2022/11/19 09:14:16;;;;;;;63.33;42.00;;;2.90;99.90;;;2.95;97.11;101133.03;5095018;28;20051;-80
2022/11/19 09:16:45;;;;;;;63.60;40.57;;;3.00;99.90;;;2.78;96.75;101150.81;5113231;28;20509;-80
2022/11/19 09:19:13;;;;;;;63.70;39.93;;;2.90;99.90;;;2.86;96.49;101188.53;5113237;28;20042;-80
2022/11/19 09:21:42;;;;;;;69.03;41.17;;;2.90;99.90;;;2.56;96.97;101135.31;5113448;28;20092;-80
2022/11/19 09:24:12;;;;;;;62.63;39.63;;;2.80;99.90;;;2.67;96.96;101150.47;5095198;28;20564;-79
2022/11/19 09:26:40;;;;;;;65.00;41.80;;;2.80;99.90;;;3.15;97.28;101152.81;5113137;28;20054;-79
2022/11/19 09:29:08;;;;;;;63.93;41.90;;;3.10;99.90;;;3.47;96.55;101159.88;5095221;28;20052;-80
2022/11/19 09:31:37;;;;;;;60.90;40.30;;;3.40;99.90;;;2.75;96.12;101137.66;5095008;28;20047;-81
2022/11/19 09:34:05;;;;;;;59.87;37.83;;;3.00;99.90;;;2.55;96.42;101155.34;5113280;28;20078;-80
2022/11/19 09:36:33;;;;;;;63.13;39.07;;;2.80;99.90;;;2.57;97.22;101143.22;5094981;28;20477;-79
2022/11/19 09:39:02;;;;;;;59.17;35.90;;;2.80;99.90;;;2.58;96.59;101149.28;5113073;28;20078;-79
2022/11/19 09:41:48;;;;;;;60.60;35.83;;;2.70;99.90;;;2.14;97.13;101095.69;5097040;28;20038;-78
2022/11/19 09:44:47;;;;;;;60.07;37.97;;;2.60;99.90;;;2.43;97.28;101135.75;5116891;28;20225;-79
2022/11/19 09:47:28;;;;;;;57.47;38.50;;;2.70;99.90;;;2.53;97.31;101161.34;5116897;28;20039;-80
2022/11/19 09:50:10;;;;;;;64.20;38.43;;;2.70;99.90;;;2.61;97.67;101176.38;5099061;28;20047;-79
2022/11/19 09:52:45;;;;;;;55.63;37.07;;;2.70;99.90;;;2.96;96.79;101192.31;5117109;28;20048;-80
2022/11/19 09:55:22;;;;;;;56.57;37.27;;;2.90;99.90;;;2.99;95.71;101192.38;5116972;28;20059;-80
2022/11/19 09:57:56;;;;;;;57.30;37.47;;;3.00;99.90;;;2.88;95.45;101172.88;5117028;28;20126;-79
2022/11/19 10:00:28;;;;;;;57.77;36.60;;;3.10;99.90;;;3.07;95.49;101183.06;5116604;28;20071;-80
2022/11/19 10:03:01;;;;;;;56.90;37.30;;;3.20;99.90;;;2.56;95.36;101153.59;5116740;28;20109;-80
2022/11/19 10:05:48;;;;;;;55.67;37.57;;;2.90;99.90;;;3.17;95.40;101209.53;5117070;28;20043;-80
2022/11/19 10:08:35;;;;;;;58.57;37.23;;;3.10;99.90;;;2.92;95.74;101187.81;5116943;28;20043;-80
2022/11/19 10:11:27;;;;;;;54.40;36.23;;;3.00;99.90;;;3.13;95.15;101225.97;5116896;28;20118;-79
2022/11/19 10:14:10;;;;;;;59.40;38.13;;;3.10;99.90;;;3.10;94.61;101123.03;5116793;28;20605;-80
2022/11/19 10:16:58;;;;;;;54.20;37.37;;;3.50;99.90;;;3.43;93.09;101174.59;5116186;28;20044;-80
2022/11/19 10:19:42;;;;;;;55.27;35.83;;;3.60;99.90;;;3.55;92.30;101184.50;5116739;28;20035;-80
2022/11/19 10:22:17;;;;;;;53.37;34.27;;;3.70;99.90;;;3.53;91.53;101194.94;5116476;28;20047;-81
2022/11/19 10:24:53;;;;;;;52.67;34.57;;;3.60;99.90;;;3.46;91.49;101210.41;5116034;28;20075;-80
2022/11/19 10:27:29;;;;;;;52.23;35.17;;;3.50;99.90;;;3.08;90.57;101143.03;5116704;28;20042;-80
2022/11/19 10:30:06;;;;;;;48.73;33.47;;;3.50;99.90;;;3.47;90.90;101192.13;5115844;28;20040;-79
2022/11/19 10:32:40;;;;;;;52.13;34.33;;;3.50;99.90;;;3.16;90.63;101168.53;5097598;28;20044;-79
2022/11/19 10:35:21;;;;;;;50.80;35.03;;;3.50;99.90;;;3.56;92.54;101186.28;5116008;28;20081;-79
2022/11/19 10:37:55;;;;;;;50.03;33.73;;;3.60;99.90;;;3.60;91.25;101182.94;5116199;28;20552;-80
2022/11/19 10:40:28;;;;;;;48.10;33.87;;;3.80;99.90;;;3.57;90.97;101180.22;5116166;28;20152;-79
2022/11/19 10:43:16;;;;;;;50.27;32.17;;;3.80;99.90;;;3.24;91.05;101142.63;5116367;28;20126;-79
2022/11/19 10:45:51;;;;;;;48.47;32.43;;;3.60;99.90;;;3.62;90.16;101191.66;5115775;28;20039;-81
2022/11/19 10:48:23;;;;;;;45.38;32.25;;;3.70;99.90;;;3.43;90.61;101185.03;5115550;28;20044;-78
2022/11/19 10:50:54;;;;;;;50.13;32.87;;;3.50;99.90;;;3.49;90.30;101193.06;5116246;28;20447;-81
2022/11/19 10:53:28;;;;;;;52.07;32.53;;;3.60;99.90;;;3.39;91.54;101197.97;5114763;28;20051;-79